createdAt,value
2018-11-28T00:02:14.632Z,14.33
2018-11-28T00:04:42.243Z,14.40
2018-11-28T00:07:09.859Z,13.83
2018-11-28T00:09:37.462Z,15.47
2018-11-28T00:12:05.095Z,14.80
2018-11-28T00:14:32.713Z,14.50
2018-11-28T00:17:00.299Z,14.60
2018-11-28T00:19:28.016Z,14.53
2018-11-28T00:21:55.612Z,15.47
2018-11-28T00:24:23.211Z,14.60
2018-11-28T00:26:50.795Z,15.80
2018-11-28T00:29:18.388Z,16.03
2018-11-28T00:31:45.967Z,15.20
2018-11-28T00:34:13.552Z,15.13
2018-11-28T00:36:41.146Z,15.87
2018-11-28T00:39:08.928Z,16.40
2018-11-28T00:41:36.543Z,15.30
2018-11-28T00:44:04.236Z,15.53
2018-11-28T00:46:31.819Z,15.27
2018-11-28T00:48:59.428Z,15.83
2018-11-28T00:51:27.016Z,16.03
2018-11-28T00:53:54.635Z,16.63
2018-11-28T00:56:22.220Z,16.37
2018-11-28T00:58:49.963Z,15.90
2018-11-28T01:01:17.555Z,15.07
2018-11-28T01:03:45.140Z,16.50
2018-11-28T01:06:12.743Z,16.67
2018-11-28T01:08:40.355Z,15.70
2018-11-28T01:11:07.967Z,15.90
2018-11-28T01:13:35.626Z,16.10
2018-11-28T01:16:03.313Z,16.43
2018-11-28T01:18:30.907Z,15.70
2018-11-28T01:20:58.528Z,16.63
2018-11-28T01:23:26.153Z,16.33
2018-11-28T01:25:53.722Z,15.93
2018-11-28T01:28:21.420Z,16.63
2018-11-28T01:30:49.003Z,16.50
2018-11-28T01:33:16.575Z,16.40
2018-11-28T01:35:44.279Z,16.27
2018-11-28T01:38:12.023Z,16.47
2018-11-28T01:40:39.658Z,15.93
2018-11-28T01:43:07.370Z,16.80
2018-11-28T01:45:35.083Z,15.93
2018-11-28T01:48:02.674Z,16.17
2018-11-28T01:50:30.286Z,16.60
2018-11-28T01:52:58.663Z,15.93
2018-11-28T01:55:26.290Z,17.90
2018-11-28T01:57:53.867Z,17.33
2018-11-28T02:00:22.551Z,16.50
2018-11-28T02:02:56.108Z,16.87
2018-11-28T02:05:23.765Z,16.43
2018-11-28T02:07:51.380Z,16.83
2018-11-28T02:10:19.043Z,15.50
2018-11-28T02:12:46.667Z,16.17
2018-11-28T02:15:16.040Z,15.00
2018-11-28T02:17:43.673Z,16.37
2018-11-28T02:20:12.507Z,15.70
2018-11-28T02:22:40.226Z,15.10
2018-11-28T02:25:10.032Z,16.23
2018-11-28T02:27:37.639Z,15.70
2018-11-28T02:30:21.820Z,16.57
2018-11-28T02:32:50.187Z,16.00
2018-11-28T02:35:18.427Z,16.47
2018-11-28T02:37:46.211Z,16.43
2018-11-28T02:40:17.641Z,15.53
2018-11-28T02:42:45.700Z,15.67
2018-11-28T02:45:16.459Z,15.40
2018-11-28T02:47:44.114Z,16.87
2018-11-28T02:50:11.855Z,16.80
2018-11-28T02:52:39.477Z,16.33
2018-11-28T02:55:10.854Z,16.27
2018-11-28T02:57:38.834Z,16.53
2018-11-28T03:00:22.287Z,16.37
2018-11-28T03:03:01.926Z,16.87
2018-11-28T03:05:31.732Z,15.63
2018-11-28T03:07:59.334Z,16.43
2018-11-28T03:10:26.927Z,16.37
2018-11-28T03:12:54.693Z,16.43
2018-11-28T03:15:32.610Z,16.97
2018-11-28T03:18:00.951Z,16.30
2018-11-28T03:20:28.592Z,16.77
2018-11-28T03:22:56.556Z,16.07
2018-11-28T03:25:24.168Z,16.37
2018-11-28T03:27:51.951Z,16.80
2018-11-28T03:30:19.577Z,16.27
2018-11-28T03:32:47.198Z,16.50
2018-11-28T03:35:15.406Z,16.67
2018-11-28T03:37:43.183Z,16.93
2018-11-28T03:40:11.068Z,16.10
2018-11-28T03:42:38.747Z,17.53
2018-11-28T03:45:12.565Z,16.83
2018-11-28T03:47:40.663Z,17.83
2018-11-28T03:50:09.438Z,17.67
2018-11-28T03:52:37.665Z,16.97
2018-11-28T03:55:06.969Z,17.63
2018-11-28T03:57:34.581Z,17.87
2018-11-28T04:00:02.371Z,17.17
2018-11-28T04:02:29.930Z,17.80
2018-11-28T04:04:57.528Z,17.63
2018-11-28T04:07:25.084Z,17.50
2018-11-28T04:09:52.695Z,17.60
2018-11-28T04:12:20.434Z,17.53
2018-11-28T04:14:48.025Z,17.07
2018-11-28T04:17:15.686Z,18.40
2018-11-28T04:19:43.279Z,17.20
2018-11-28T04:22:10.894Z,18.43
2018-11-28T04:24:38.474Z,18.83
2018-11-28T04:27:06.142Z,17.90
2018-11-28T04:29:33.727Z,16.67
2018-11-28T04:32:01.324Z,17.90
2018-11-28T04:34:30.475Z,17.77
2018-11-28T04:36:58.087Z,19.37
2018-11-28T04:39:25.724Z,17.13
2018-11-28T04:41:53.337Z,18.40
2018-11-28T04:44:21.061Z,19.60
2018-11-28T04:46:48.661Z,19.30
2018-11-28T04:49:16.508Z,19.23
2018-11-28T04:51:44.147Z,18.53
2018-11-28T04:54:11.801Z,18.60
2018-11-28T04:56:39.408Z,17.50
2018-11-28T04:59:06.996Z,19.17
2018-11-28T05:01:34.620Z,18.80
2018-11-28T05:04:02.203Z,18.13
2018-11-28T05:07:41.066Z,18.97
2018-11-28T05:10:16.039Z,18.60
2018-11-28T05:12:43.695Z,18.43
2018-11-28T05:15:14.200Z,18.60
2018-11-28T05:17:42.102Z,19.63
2018-11-28T05:20:14.932Z,19.30
2018-11-28T05:22:42.575Z,21.93
2018-11-28T05:25:11.959Z,20.40
2018-11-28T05:27:41.836Z,20.53
2018-11-28T05:30:11.659Z,19.73
2018-11-28T05:32:39.291Z,18.60
2018-11-28T05:35:08.331Z,19.13
2018-11-28T05:37:35.955Z,18.57
2018-11-28T05:40:03.656Z,20.30
2018-11-28T05:42:31.390Z,19.17
2018-11-28T05:44:58.995Z,18.67
2018-11-28T05:47:26.628Z,24.07
2018-11-28T05:49:54.215Z,68.43
2018-11-28T05:52:22.168Z,19.60
2018-11-28T05:54:49.752Z,19.17
2018-11-28T05:57:17.355Z,19.30
2018-11-28T05:59:44.963Z,18.80
2018-11-28T06:02:12.596Z,18.47
2018-11-28T06:04:40.292Z,19.50
2018-11-28T06:07:07.903Z,19.00
2018-11-28T06:09:35.478Z,19.83
2018-11-28T06:13:11.276Z,19.10
2018-11-28T06:15:39.003Z,18.87
2018-11-28T06:18:07.507Z,18.87
2018-11-28T06:20:35.087Z,19.10
2018-11-28T06:23:02.739Z,18.77
2018-11-28T06:25:30.349Z,18.13
2018-11-28T06:27:57.982Z,18.63
2018-11-28T06:30:25.587Z,18.87
2018-11-28T06:32:53.222Z,18.50
2018-11-28T06:35:20.808Z,18.63
2018-11-28T06:37:48.425Z,18.97
2018-11-28T06:40:16.743Z,19.00
2018-11-28T06:42:45.480Z,18.60
2018-11-28T06:45:15.266Z,19.00
2018-11-28T06:47:42.897Z,19.30
2018-11-28T06:50:12.748Z,38.77
2018-11-28T06:52:40.519Z,44.80
2018-11-28T06:55:09.611Z,22.60
2018-11-28T06:57:37.281Z,19.37
2018-11-28T07:00:14.871Z,19.47
2018-11-28T07:02:42.495Z,19.77
2018-11-28T07:05:10.655Z,19.20
2018-11-28T07:07:38.279Z,18.63
2018-11-28T07:10:08.365Z,20.20
2018-11-28T07:12:36.038Z,18.97
2018-11-28T07:15:03.775Z,18.93
2018-11-28T07:17:31.412Z,18.67
2018-11-28T07:19:59.367Z,19.27
2018-11-28T07:22:26.990Z,18.97
2018-11-28T07:24:54.585Z,18.87
2018-11-28T07:27:23.262Z,18.83
2018-11-28T07:29:49.859Z,19.43
2018-11-28T07:32:17.459Z,18.83
2018-11-28T07:34:45.036Z,19.77
2018-11-28T07:37:12.636Z,19.47
2018-11-28T07:39:40.240Z,20.20
2018-11-28T07:42:07.963Z,18.93
2018-11-28T07:44:35.576Z,18.83
2018-11-28T07:47:03.179Z,19.13
2018-11-28T07:49:30.802Z,19.17
2018-11-28T07:51:58.419Z,19.27
2018-11-28T07:54:26.039Z,20.30
2018-11-28T07:56:53.775Z,19.73
2018-11-28T07:59:21.416Z,18.63
2018-11-28T08:01:49.018Z,19.07
2018-11-28T08:04:16.655Z,19.47
2018-11-28T08:06:44.237Z,18.87
2018-11-28T08:09:11.848Z,20.47
2018-11-28T08:11:39.468Z,19.57
2018-11-28T08:14:07.083Z,19.57
2018-11-28T08:16:34.687Z,18.70
2018-11-28T08:19:02.500Z,19.73
2018-11-28T08:21:30.187Z,20.10
2018-11-28T08:23:57.879Z,18.97
2018-11-28T08:26:25.471Z,21.00
2018-11-28T08:28:53.327Z,20.10
2018-11-28T08:31:20.706Z,19.87
2018-11-28T08:33:48.311Z,19.43
2018-11-28T08:36:15.897Z,20.47
2018-11-28T08:38:43.531Z,19.37
2018-11-28T08:41:11.112Z,19.73
2018-11-28T08:43:38.731Z,19.80
2018-11-28T08:46:06.397Z,20.07
2018-11-28T08:48:34.005Z,20.30
2018-11-28T08:51:01.603Z,29.33
2018-11-28T08:53:29.412Z,27.87
2018-11-28T08:55:57.048Z,31.33
2018-11-28T08:58:24.680Z,19.93
2018-11-28T09:00:52.277Z,19.63
2018-11-28T09:03:26.859Z,19.37
2018-11-28T09:05:54.835Z,19.07
2018-11-28T09:08:22.504Z,19.20
2018-11-28T09:10:50.111Z,19.63
2018-11-28T09:13:17.723Z,19.73
2018-11-28T09:15:45.303Z,19.07
2018-11-28T09:18:12.915Z,19.70
2018-11-28T09:20:40.597Z,18.70
2018-11-28T09:23:08.183Z,19.60
2018-11-28T09:25:35.915Z,18.53
2018-11-28T09:28:03.587Z,19.30
2018-11-28T09:30:31.256Z,19.23
2018-11-28T09:32:58.894Z,18.70
2018-11-28T09:35:26.539Z,17.83
2018-11-28T09:37:54.139Z,18.20
2018-11-28T09:40:22.916Z,17.90
2018-11-28T09:42:51.431Z,18.43
2018-11-28T09:45:19.466Z,18.97
2018-11-28T09:47:47.161Z,17.67
2018-11-28T09:50:16.692Z,18.83
2018-11-28T09:52:44.290Z,18.50
2018-11-28T09:55:14.731Z,18.57
2018-11-28T09:57:42.471Z,17.97
2018-11-28T10:00:12.591Z,18.13
2018-11-28T10:02:40.244Z,17.63
2018-11-28T10:05:10.148Z,18.23
2018-11-28T10:07:37.778Z,18.17
2018-11-28T10:10:08.204Z,18.07
2018-11-28T10:12:35.828Z,19.10
2018-11-28T10:15:05.327Z,17.83
2018-11-28T10:17:33.804Z,17.60
2018-11-28T10:20:01.451Z,17.70
2018-11-28T10:22:29.065Z,17.73
2018-11-28T10:24:56.677Z,17.27
2018-11-28T10:27:24.262Z,17.43
2018-11-28T10:29:51.873Z,18.43
2018-11-28T10:32:19.464Z,17.83
2018-11-28T10:34:47.115Z,18.30
2018-11-28T10:37:14.912Z,17.50
2018-11-28T10:39:42.551Z,16.87
2018-11-28T10:42:10.341Z,17.07
2018-11-28T10:44:37.968Z,17.20
2018-11-28T10:47:05.750Z,18.07
2018-11-28T10:49:33.393Z,17.30
2018-11-28T10:52:00.999Z,16.50
2018-11-28T10:54:28.620Z,17.50
2018-11-28T10:56:56.223Z,16.63
2018-11-28T10:59:23.841Z,15.80
2018-11-28T11:01:51.688Z,17.50
2018-11-28T11:04:23.959Z,16.17
2018-11-28T11:07:01.295Z,20.93
2018-11-28T11:09:34.523Z,26.57
2018-11-28T11:12:05.336Z,17.17
2018-11-28T11:14:38.675Z,16.67
2018-11-28T11:17:06.319Z,16.90
2018-11-28T11:19:33.988Z,16.60
2018-11-28T11:22:01.650Z,17.00
2018-11-28T11:24:29.259Z,16.70
2018-11-28T11:26:56.871Z,16.70
2018-11-28T11:29:24.747Z,15.93
2018-11-28T11:31:52.355Z,15.40
2018-11-28T11:34:21.839Z,15.00
2018-11-28T11:36:49.500Z,14.53
2018-11-28T11:39:17.100Z,15.00
2018-11-28T11:41:44.712Z,15.60
2018-11-28T11:44:13.083Z,14.87
2018-11-28T11:46:40.709Z,14.60
2018-11-28T11:49:08.300Z,15.63
2018-11-28T11:51:36.432Z,14.63
2018-11-28T11:54:04.304Z,14.23
2018-11-28T11:56:31.933Z,14.43
2018-11-28T11:58:59.504Z,14.93
2018-11-28T12:01:27.928Z,15.43
2018-11-28T12:03:55.513Z,14.67
2018-11-28T12:06:23.334Z,14.37
2018-11-28T12:08:50.889Z,13.23
2018-11-28T12:11:18.447Z,14.43
2018-11-28T12:13:45.991Z,13.57
2018-11-28T12:16:13.564Z,13.90
2018-11-28T12:18:41.121Z,13.83
2018-11-28T12:21:08.709Z,14.30
2018-11-28T12:23:36.650Z,13.80
2018-11-28T12:26:04.542Z,12.27
2018-11-28T12:28:33.072Z,11.73
2018-11-28T12:31:00.644Z,11.83
2018-11-28T12:33:28.211Z,11.83
2018-11-28T12:35:55.771Z,12.27
2018-11-28T12:38:23.346Z,12.30
2018-11-28T12:40:50.951Z,12.73
2018-11-28T12:43:19.346Z,12.70
2018-11-28T12:45:48.144Z,14.40
2018-11-28T12:48:15.781Z,15.50
2018-11-28T12:50:43.751Z,14.20
2018-11-28T12:53:12.349Z,12.73
2018-11-28T12:55:40.044Z,12.33
2018-11-28T12:58:15.428Z,12.23
2018-11-28T13:00:43.030Z,11.70
2018-11-28T13:03:12.115Z,12.60
2018-11-28T13:05:39.900Z,12.20
2018-11-28T13:08:07.464Z,12.13
2018-11-28T13:10:37.137Z,12.50
2018-11-28T13:13:06.235Z,12.47
2018-11-28T13:15:34.019Z,11.53
2018-11-28T13:18:01.691Z,11.80
2018-11-28T13:20:29.247Z,12.40
2018-11-28T13:22:56.812Z,11.73
2018-11-28T13:25:26.857Z,11.97
2018-11-28T13:27:54.630Z,12.10
2018-11-28T13:30:23.007Z,11.40
2018-11-28T13:32:51.067Z,11.73
2018-11-28T13:35:20.115Z,11.90
2018-11-28T13:37:48.667Z,11.83
2018-11-28T13:40:17.212Z,11.53
2018-11-28T13:42:44.815Z,12.57
2018-11-28T13:45:14.612Z,11.93
2018-11-28T13:47:43.224Z,11.37
2018-11-28T13:50:10.989Z,10.77
2018-11-28T13:52:38.580Z,9.13
2018-11-28T13:55:42.474Z,8.70
2018-11-28T13:57:40.844Z,10.53
2018-11-28T14:00:09.034Z,8.90
2018-11-28T14:02:36.924Z,7.93
2018-11-28T14:05:06.708Z,7.40
2018-11-28T14:07:34.289Z,7.63
2018-11-28T14:10:01.839Z,7.20
2018-11-28T14:12:29.416Z,26.93
2018-11-28T14:14:56.964Z,21.10
2018-11-28T14:17:24.679Z,8.00
2018-11-28T14:19:52.224Z,7.53
2018-11-28T14:22:19.788Z,7.93
2018-11-28T14:24:47.352Z,7.50
2018-11-28T14:27:14.986Z,7.20
2018-11-28T14:29:42.728Z,7.37
2018-11-28T14:32:10.293Z,7.53
2018-11-28T14:34:37.892Z,7.40
2018-11-28T14:37:05.885Z,8.43
2018-11-28T14:39:33.467Z,9.73
2018-11-28T14:42:01.093Z,9.00
2018-11-28T14:44:28.676Z,7.80
2018-11-28T14:46:56.244Z,8.00
2018-11-28T14:49:23.931Z,7.67
2018-11-28T14:51:54.348Z,8.80
2018-11-28T14:54:21.980Z,8.73
2018-11-28T14:56:49.640Z,8.60
2018-11-28T14:59:17.252Z,8.33
2018-11-28T15:01:44.822Z,8.23
2018-11-28T15:04:12.412Z,8.23
2018-11-28T15:06:55.307Z,8.80
2018-11-28T15:09:29.915Z,8.70
2018-11-28T15:11:58.208Z,8.53
2018-11-28T15:14:25.850Z,8.63
2018-11-28T15:16:53.454Z,9.23
2018-11-28T15:19:21.106Z,9.30
2018-11-28T15:21:50.942Z,10.23
2018-11-28T15:24:18.563Z,11.20
2018-11-28T15:26:47.574Z,10.70
2018-11-28T15:29:15.231Z,11.30
2018-11-28T15:31:42.851Z,11.33
2018-11-28T15:34:11.927Z,11.73
2018-11-28T15:36:42.839Z,12.03
2018-11-28T15:39:10.416Z,11.43
2018-11-28T15:41:38.097Z,11.27
2018-11-28T15:44:05.900Z,28.87
2018-11-28T15:46:36.336Z,22.37
2018-11-28T15:49:03.969Z,13.30
2018-11-28T15:51:31.511Z,12.00
2018-11-28T15:55:01.823Z,12.37
2018-11-28T15:57:29.447Z,12.03
2018-11-28T15:59:57.000Z,12.23
2018-11-28T16:02:25.037Z,12.10
2018-11-28T16:04:52.673Z,12.43
2018-11-28T16:07:20.493Z,13.37
2018-11-28T16:09:53.686Z,13.43
2018-11-28T16:12:21.455Z,13.20
2018-11-28T16:14:49.039Z,13.63
2018-11-28T16:17:16.671Z,13.00
2018-11-28T16:19:44.355Z,13.30
2018-11-28T16:22:11.919Z,13.40
2018-11-28T16:24:39.484Z,13.97
2018-11-28T16:27:07.064Z,14.03
2018-11-28T16:29:35.060Z,12.47
2018-11-28T16:32:02.631Z,24.77
2018-11-28T16:34:30.215Z,13.90
2018-11-28T16:36:57.827Z,12.80
2018-11-28T16:39:25.981Z,12.67
2018-11-28T16:41:53.556Z,12.60
2018-11-28T16:44:21.155Z,12.20
2018-11-28T16:46:48.955Z,12.10
2018-11-28T16:49:16.553Z,13.33
2018-11-28T16:51:44.122Z,12.40
2018-11-28T16:54:11.679Z,13.23
2018-11-28T16:56:39.223Z,13.43
2018-11-28T16:59:06.795Z,13.57
2018-11-28T17:01:34.339Z,13.67
2018-11-28T17:04:01.911Z,13.27
2018-11-28T17:06:29.463Z,13.90
2018-11-28T17:08:57.040Z,13.90
2018-11-28T17:11:24.683Z,13.07
2018-11-28T17:13:52.272Z,32.77
2018-11-28T17:16:19.831Z,52.97
2018-11-28T17:18:47.399Z,21.33
2018-11-28T17:21:14.963Z,15.70
2018-11-28T17:23:42.572Z,14.70
2018-11-28T17:26:10.159Z,15.10
2018-11-28T17:28:37.695Z,14.60
2018-11-28T17:31:06.396Z,15.17
2018-11-28T17:33:33.943Z,14.30
2018-11-28T17:36:01.520Z,14.70
2018-11-28T17:38:29.098Z,15.20
2018-11-28T17:40:58.584Z,14.90
2018-11-28T17:43:27.023Z,14.77
2018-11-28T17:45:54.587Z,15.13
2018-11-28T17:48:23.129Z,14.90
2018-11-28T17:50:50.770Z,14.33
2018-11-28T17:53:18.403Z,14.73
2018-11-28T17:55:54.738Z,14.20
2018-11-28T17:58:22.287Z,14.07
2018-11-28T18:00:49.956Z,14.30
2018-11-28T18:03:17.839Z,14.73
2018-11-28T18:05:45.432Z,13.57
2018-11-28T18:08:12.977Z,14.47
2018-11-28T18:10:40.559Z,14.97
2018-11-28T18:13:12.719Z,14.77
2018-11-28T18:15:42.079Z,13.97
2018-11-28T18:18:10.788Z,13.03
2018-11-28T18:20:38.339Z,13.07
2018-11-28T18:23:07.864Z,12.63
2018-11-28T18:25:35.943Z,14.00
2018-11-28T18:28:03.552Z,37.83
2018-11-28T18:30:31.126Z,19.37
2018-11-28T18:32:58.707Z,16.33
2018-11-28T18:35:26.269Z,13.53
2018-11-28T18:37:54.664Z,12.17
2018-11-28T18:40:22.456Z,12.20
2018-11-28T18:42:50.188Z,12.00
2018-11-28T18:45:20.252Z,11.10
2018-11-28T18:47:47.958Z,11.63
2018-11-28T18:50:15.571Z,10.47
2018-11-28T18:52:43.291Z,10.67
2018-11-28T18:55:16.610Z,10.23
2018-11-28T18:57:39.755Z,10.30
2018-11-28T19:00:12.847Z,10.10
2018-11-28T19:02:40.919Z,10.57
2018-11-28T19:05:08.532Z,10.70
2018-11-28T19:07:36.128Z,9.73
2018-11-28T19:10:05.307Z,10.00
2018-11-28T19:12:32.863Z,10.60
2018-11-28T19:15:00.413Z,10.67
2018-11-28T19:17:27.970Z,10.13
2018-11-28T19:19:55.583Z,10.77
2018-11-28T19:22:23.135Z,10.53
2018-11-28T19:24:50.694Z,10.67
2018-11-28T19:27:18.235Z,9.80
2018-11-28T19:29:45.825Z,10.07
2018-11-28T19:32:13.412Z,10.10
2018-11-28T19:34:48.004Z,10.13
2018-11-28T19:37:15.580Z,10.40
2018-11-28T19:39:43.334Z,10.33
2018-11-28T19:42:10.891Z,9.90
2018-11-28T19:44:38.455Z,10.57
2018-11-28T19:47:06.040Z,31.67
2018-11-28T19:49:33.623Z,73.77
2018-11-28T19:52:02.083Z,15.10
2018-11-28T19:54:29.647Z,10.37
2018-11-28T19:56:57.183Z,11.93
2018-11-28T19:59:24.751Z,9.23
2018-11-28T20:01:52.307Z,9.87
2018-11-28T20:04:19.926Z,9.80
2018-11-28T20:06:47.503Z,9.97
2018-11-28T20:09:19.135Z,9.10
2018-11-28T20:11:46.719Z,9.93
2018-11-28T20:14:14.296Z,9.93
2018-11-28T20:16:41.835Z,9.80
2018-11-28T20:19:09.469Z,9.83
2018-11-28T20:21:37.005Z,9.33
2018-11-28T20:24:06.196Z,9.40
2018-11-28T20:26:33.747Z,9.33
2018-11-28T20:29:01.331Z,8.73
2018-11-28T20:31:28.895Z,8.73
2018-11-28T20:33:56.481Z,8.30
2018-11-28T20:36:24.052Z,8.17
2018-11-28T20:38:51.633Z,7.77
2018-11-28T20:41:19.216Z,7.70
2018-11-28T20:43:47.752Z,8.43
2018-11-28T20:46:15.329Z,8.20
2018-11-28T20:48:42.920Z,8.03
2018-11-28T20:51:10.524Z,8.13
2018-11-28T20:53:38.108Z,8.10
2018-11-28T20:56:07.505Z,7.53
2018-11-28T20:58:35.100Z,7.60
2018-11-28T21:01:02.744Z,8.23
2018-11-28T21:03:30.337Z,8.03
2018-11-28T21:05:57.885Z,8.13
2018-11-28T21:08:25.456Z,7.97
2018-11-28T21:10:53.132Z,8.77
2018-11-28T21:13:20.687Z,8.10
2018-11-28T21:15:48.271Z,8.13
2018-11-28T21:18:15.841Z,8.17
2018-11-28T21:20:44.621Z,25.37
2018-11-28T21:23:15.071Z,40.70
2018-11-28T21:25:43.842Z,21.70
2018-11-28T21:28:11.419Z,8.53
2018-11-28T21:30:38.983Z,7.20
2018-11-28T21:33:07.868Z,8.07
2018-11-28T21:35:36.591Z,7.10
2018-11-28T21:38:04.184Z,8.03
2018-11-28T21:40:31.767Z,7.80
2018-11-28T21:42:59.326Z,7.07
2018-11-28T21:45:26.911Z,7.33
2018-11-28T21:47:54.582Z,7.73
2018-11-28T21:50:22.160Z,7.13
2018-11-28T21:52:49.733Z,7.00
2018-11-28T21:55:19.859Z,7.10
2018-11-28T21:57:47.628Z,8.30
2018-11-28T22:00:16.180Z,7.20
2018-11-28T22:02:43.742Z,7.00
2018-11-28T22:05:12.278Z,6.63
2018-11-28T22:07:39.935Z,6.87
2018-11-28T22:10:09.743Z,7.00
2018-11-28T22:12:37.517Z,7.63
2018-11-28T22:15:07.183Z,7.43
2018-11-28T22:17:34.851Z,7.47
2018-11-28T22:20:02.659Z,7.43
2018-11-28T22:22:30.199Z,7.80
2018-11-28T22:24:57.784Z,8.10
2018-11-28T22:27:25.335Z,8.17
2018-11-28T22:29:52.908Z,8.77
2018-11-28T22:32:20.460Z,8.43
2018-11-28T22:34:48.023Z,10.50
2018-11-28T22:37:15.583Z,9.77
2018-11-28T22:39:43.179Z,9.50
2018-11-28T22:42:10.752Z,9.10
2018-11-28T22:44:38.359Z,8.20
2018-11-28T22:47:05.919Z,8.53
2018-11-28T22:49:33.519Z,9.30
2018-11-28T22:52:01.096Z,8.60
2018-11-28T22:54:28.636Z,8.87
2018-11-28T22:56:56.196Z,9.10
2018-11-28T22:59:23.754Z,8.50
2018-11-28T23:02:59.315Z,9.13
2018-11-28T23:05:28.847Z,10.23
2018-11-28T23:07:57.398Z,9.33
2018-11-28T23:10:26.032Z,9.00
2018-11-28T23:12:53.624Z,8.67
2018-11-28T23:15:21.236Z,8.30
2018-11-28T23:17:54.867Z,9.20
2018-11-28T23:20:17.445Z,9.20
2018-11-28T23:22:45.013Z,9.17
2018-11-28T23:25:12.770Z,9.00
2018-11-28T23:27:40.344Z,8.40
2018-11-28T23:30:13.995Z,8.23
2018-11-28T23:32:41.542Z,8.87
2018-11-28T23:35:09.883Z,8.60
2018-11-28T23:37:37.676Z,8.67
2018-11-28T23:40:12.967Z,9.67
2018-11-28T23:42:40.539Z,8.43
2018-11-28T23:45:09.391Z,8.80
2018-11-28T23:47:36.995Z,8.53
2018-11-28T23:50:07.778Z,8.40
2018-11-28T23:52:35.564Z,8.43
2018-11-28T23:55:03.216Z,8.00
2018-11-28T23:57:30.788Z,7.87
2018-11-28T23:59:58.327Z,7.73
